Terminal Aerodrome Forecast
Issued by NWS

Home | Current Version | Previous Version | Text Only | Print | Product List | Glossary On
Versions: 1 2 3 4 5 6 7 8 9 10 11 12 13
000
FTUS46 KHNX 312320
TAFFAT
TAF
KFAT 312320Z 0100/0124 30010KT P6SM FEW130 SCT250
      TEMPO 0103/0107 32013G19KT BKN130
     FM011000 32006KT P6SM FEW130 BKN250
     FM012300 32009KT P6SM SKC=

USA.gov is the U.S. government's official web portal to all federal, state and local government web resources and services.